Terminal Aerodrome Forecast
Issued by NWS Shreveport, LA

Home | Current Version | Previous Version | Text Only | Print | Product List | Glossary On
Versions: 1 2 3 4 5 6 7 8 9 10 11 12 13 14 15 16 17 18 19
996
FTUS44 KSHV 051720
TAFGGG
TAF
KGGG 051720Z 0518/0618 05007KT 4SM -RA BR OVC009
     FM052100 01006KT 5SM -RA BR OVC005
     FM060600 25006KT 4SM -DZ BR OVC003
     FM061200 VRB04KT P6SM OVC009=

USA.gov is the U.S. government's official web portal to all federal, state and local government web resources and services.